Time;durP1;ratioP1;P1;durP2;ratioP2;P2;SDS_P1;SDS_P2;PMS_P1;PMS_P2;Temp;Humidity;BMP_temperature;BMP_pressure;BME280_temperature;BME280_humidity;BME280_pressure;Samples;Min_cycle;Max_cycle;Signal;HPM_P1;HPM_P2
2023/09/02 00:01:39;;;;;;;;;;;;;;;-140.72;100.00;52772.34;6245192;22;19919;-68
2023/09/02 00:04:04;;;;;;;;;;;;;;;-140.72;100.00;52758.16;6244728;23;19919;-68
2023/09/02 00:06:29;;;;;;;;;;;;;;;-140.72;100.00;52748.00;6245138;23;19962;-68
2023/09/02 00:08:54;;;;;;;;;;;;;;;-140.72;100.00;52754.09;6246283;23;19918;-68
2023/09/02 00:11:20;;;;;;;;;;;;;;;-140.72;100.00;52754.09;6244275;23;19911;-68
2023/09/02 00:13:45;;;;;;;;;;;;;;;-140.72;100.00;52784.53;6246325;23;19983;-68
2023/09/02 00:16:10;;;;;;;;;;;;;;;-140.72;100.00;52743.94;6246206;23;19918;-68
2023/09/02 00:18:36;;;;;;;;;;;;;;;-140.72;100.00;52768.28;6248243;23;19946;-69
2023/09/02 00:21:03;;;;;;;;;;;;;;;-140.72;100.00;52754.09;6252090;23;20324;-69
2023/09/02 00:23:29;;;;;;;;;;;;;;;-140.72;100.00;52741.91;6252184;23;19933;-69
2023/09/02 00:25:59;;;;;;;;;;;;;;;-140.72;100.00;52752.06;6248650;22;19958;-69
2023/09/02 00:28:24;;;;;;;;;;;;;;;-140.72;100.00;52772.34;6245447;22;19919;-68
2023/09/02 00:30:50;;;;;;;;;;;;;;;-140.72;100.00;52750.03;6243230;23;19911;-69
2023/09/02 00:33:15;;;;;;;;;;;;;;;-140.72;100.00;52778.44;6245412;23;19939;-68
2023/09/02 00:35:40;;;;;;;;;;;;;;;-140.72;100.00;52768.28;6246278;23;19911;-68
2023/09/02 00:38:05;;;;;;;;;;;;;;;-140.72;100.00;52800.75;6246361;23;20324;-68
2023/09/02 00:40:31;;;;;;;;;;;;;;;-140.72;100.00;52778.44;6245714;23;19916;-68
2023/09/02 00:42:59;;;;;;;;;;;;;;;-140.72;100.00;52760.19;6245321;22;21475;-68
2023/09/02 00:45:24;;;;;;;;;;;;;;;-140.72;100.00;52729.75;6245965;22;19961;-68
2023/09/02 00:47:50;;;;;;;;;;;;;;;-140.72;100.00;52788.59;6245874;22;19946;-68
2023/09/02 00:50:22;;;;;;;;;;;;;;;-140.72;100.00;52792.66;6245653;23;19923;-68
2023/09/02 00:52:47;;;;;;;;;;;;;;;-140.72;100.00;52750.03;6246097;23;19965;-68
2023/09/02 00:55:13;;;;;;;;;;;;;;;-140.72;100.00;52786.56;6243947;23;20216;-68
2023/09/02 00:57:39;;;;;;;;;;;;;;;-140.72;100.00;52776.41;6246206;22;20001;-68
2023/09/02 01:00:08;;;;;;;;;;;;;;;-140.72;100.00;52760.19;6244055;22;19918;-68
2023/09/02 01:02:33;;;;;;;;;;;;;;;-140.72;100.00;52756.13;6245154;22;20081;-68
2023/09/02 01:05:02;;;;;;;;;;;;;;;-140.72;100.00;52754.09;6244965;22;19950;-68
2023/09/02 01:07:28;;;;;;;;;;;;;;;-140.72;100.00;52741.91;6245293;22;19915;-68
2023/09/02 01:09:54;;;;;;;;;;;;;;;-140.72;100.00;52752.06;6246029;22;20386;-69
2023/09/02 01:12:19;;;;;;;;;;;;;;;-140.72;100.00;52764.25;6245595;22;20356;-68
2023/09/02 01:14:44;;;;;;;;;;;;;;;-140.72;100.00;52750.03;6242088;23;19935;-68
2023/09/02 01:17:25;;;;;;;;;;;;;;;-140.72;100.00;52750.03;6243306;23;19912;-68
2023/09/02 01:20:03;;;;;;;;;;;;;;;-140.72;100.00;52731.75;6243857;23;19994;-68
2023/09/02 01:25:38;;;;;;;;;;;;;;;-140.72;100.00;52737.84;6246121;23;19912;-69
2023/09/02 01:28:18;;;;;;;;;;;;;;;-140.72;100.00;52695.25;6242820;23;19939;-68
2023/09/02 01:30:46;;;;;;;;;;;;;;;-140.72;100.00;52727.72;6244439;22;19968;-68
2023/09/02 01:33:12;;;;;;;;;;;;;;;-140.72;100.00;52723.66;6246090;22;20336;-68
2023/09/02 01:35:38;;;;;;;;;;;;;;;-140.72;100.00;52733.78;6246921;22;20706;-68
2023/09/02 01:38:03;;;;;;;;;;;;;;;-140.72;100.00;52788.59;6246205;23;19911;-68
2023/09/02 01:40:30;;;;;;;;;;;;;;;-140.72;100.00;52727.72;6246240;23;19918;-68
2023/09/02 01:42:59;;;;;;;;;;;;;;;-140.72;100.00;52727.72;6245622;22;19947;-68
2023/09/02 01:45:33;;;;;;;;;;;;;;;-140.72;100.00;52731.75;6246210;22;19947;-68
2023/09/02 01:47:59;;;;;;;;;;;;;;;-140.72;100.00;52790.63;6244859;22;19927;-68
2023/09/02 01:50:27;;;;;;;;;;;;;;;-140.72;100.00;52743.94;6247990;22;20220;-68
2023/09/02 01:52:55;;;;;;;;;;;;;;;-140.72;100.00;52723.66;6247096;22;19939;-68
2023/09/02 01:55:21;;;;;;;;;;;;;;;-140.72;100.00;52758.16;6244636;23;19919;-68
2023/09/02 01:57:47;;;;;;;;;;;;;;;-140.72;100.00;52762.22;6246511;22;19951;-68
2023/09/02 02:00:12;;;;;;;;;;;;;;;-140.72;100.00;52743.94;6246291;22;20340;-68
2023/09/02 02:02:38;;;;;;;;;;;;;;;-140.72;100.00;52725.69;6246121;23;19915;-68
2023/09/02 02:05:05;;;;;;;;;;;;;;;-140.72;100.00;52772.34;6247305;22;19911;-68
2023/09/02 02:07:41;;;;;;;;;;;;;;;-140.72;100.00;52741.91;6246011;22;20030;-68
2023/09/02 02:10:07;;;;;;;;;;;;;;;-140.72;100.00;52748.00;6245932;22;20002;-68
2023/09/02 02:12:33;;;;;;;;;;;;;;;-140.72;100.00;52739.88;6246067;22;20240;-68
2023/09/02 02:14:59;;;;;;;;;;;;;;;-140.72;100.00;52758.16;6246921;22;20232;-68
2023/09/02 02:17:24;;;;;;;;;;;;;;;-140.72;100.00;52760.19;6247257;23;19919;-68
2023/09/02 02:19:50;;;;;;;;;;;;;;;-140.72;100.00;52812.94;6247777;22;19911;-68
2023/09/02 02:22:15;;;;;;;;;;;;;;;-140.72;100.00;52735.81;6247579;23;19912;-68
2023/09/02 02:24:40;;;;;;;;;;;;;;;-140.72;100.00;52760.19;6244234;23;20321;-68
2023/09/02 02:27:05;;;;;;;;;;;;;;;-140.72;100.00;52764.25;6246613;22;20350;-68
2023/09/02 02:29:31;;;;;;;;;;;;;;;-140.72;100.00;52743.94;6246672;23;19916;-68
2023/09/02 02:31:56;;;;;;;;;;;;;;;-140.72;100.00;52729.75;6247100;23;20240;-68
2023/09/02 02:34:23;;;;;;;;;;;;;;;-140.72;100.00;52756.13;6247510;23;20607;-69
2023/09/02 02:36:48;;;;;;;;;;;;;;;-140.72;100.00;52721.63;6245832;22;19915;-68
2023/09/02 02:39:14;;;;;;;;;;;;;;;-140.72;100.00;52762.22;6246154;23;19912;-68
2023/09/02 02:41:39;;;;;;;;;;;;;;;-140.72;100.00;52758.16;6245600;23;19980;-68
2023/09/02 02:44:04;;;;;;;;;;;;;;;-140.72;100.00;52748.00;6246815;23;19998;-68
2023/09/02 02:46:29;;;;;;;;;;;;;;;-140.72;100.00;52729.75;6247041;22;19916;-68
2023/09/02 02:48:55;;;;;;;;;;;;;;;-140.72;100.00;52739.88;6246135;23;19916;-68
2023/09/02 02:51:20;;;;;;;;;;;;;;;-140.72;100.00;52756.13;6245520;23;19916;-68
2023/09/02 02:53:45;;;;;;;;;;;;;;;-140.72;100.00;52780.47;6245823;23;20351;-68
2023/09/02 02:56:10;;;;;;;;;;;;;;;-140.72;100.00;52752.06;6247189;23;20343;-68
2023/09/02 02:58:36;;;;;;;;;;;;;;;-140.72;100.00;52743.94;6246938;23;20328;-68
2023/09/02 03:01:05;;;;;;;;;;;;;;;-140.72;100.00;52758.16;6244609;23;19942;-68
2023/09/02 03:03:30;;;;;;;;;;;;;;;-140.72;100.00;52750.03;6245800;22;19918;-68
2023/09/02 03:05:56;;;;;;;;;;;;;;;-140.72;100.00;52748.00;6244157;22;19911;-68
2023/09/02 03:08:21;;;;;;;;;;;;;;;-140.72;100.00;52723.66;6247031;22;19979;-68
2023/09/02 03:10:54;;;;;;;;;;;;;;;-140.72;100.00;52723.66;6245438;23;19954;-68
2023/09/02 03:13:19;;;;;;;;;;;;;;;-140.72;100.00;52760.19;6246141;22;19912;-68
2023/09/02 03:15:48;;;;;;;;;;;;;;;-140.72;100.00;52756.13;6247413;23;19918;-68
2023/09/02 03:18:13;;;;;;;;;;;;;;;-140.72;100.00;52713.50;6245880;22;20656;-68
2023/09/02 03:20:39;;;;;;;;;;;;;;;-140.72;100.00;52697.28;6244104;23;19918;-68
2023/09/02 03:23:05;;;;;;;;;;;;;;;-140.72;100.00;52756.13;6245728;23;19950;-69
2023/09/02 03:25:31;;;;;;;;;;;;;;;-140.72;100.00;52776.41;6246604;23;19994;-68
2023/09/02 03:27:56;;;;;;;;;;;;;;;-140.72;100.00;52756.13;6247295;23;20205;-68
2023/09/02 03:30:22;;;;;;;;;;;;;;;-140.72;100.00;52780.47;6246999;23;19911;-68
2023/09/02 03:32:47;;;;;;;;;;;;;;;-140.72;100.00;52758.16;6246737;23;20013;-68
2023/09/02 03:35:12;;;;;;;;;;;;;;;-140.72;100.00;52756.13;6247173;23;19912;-68
2023/09/02 03:37:37;;;;;;;;;;;;;;;-140.72;100.00;52776.41;6245848;23;19945;-68
2023/09/02 03:40:03;;;;;;;;;;;;;;;-140.72;100.00;52731.75;6245802;23;20267;-69
2023/09/02 03:42:28;;;;;;;;;;;;;;;-140.72;100.00;52762.22;6245689;22;20228;-68
2023/09/02 03:44:54;;;;;;;;;;;;;;;-140.72;100.00;52729.75;6246750;23;19915;-68
2023/09/02 03:47:19;;;;;;;;;;;;;;;-140.72;100.00;52766.25;6247587;22;19915;-68
2023/09/02 03:49:44;;;;;;;;;;;;;;;-140.72;100.00;52741.91;6245214;23;19912;-68
2023/09/02 03:52:09;;;;;;;;;;;;;;;-140.72;100.00;52737.84;6245349;23;20239;-68
2023/09/02 03:54:38;;;;;;;;;;;;;;;-140.72;100.00;52748.00;6243374;23;19915;-68
2023/09/02 03:57:05;;;;;;;;;;;;;;;-140.72;100.00;52760.19;6245760;22;19923;-68
2023/09/02 03:59:30;;;;;;;;;;;;;;;-140.72;100.00;52796.72;6246401;22;19912;-68
2023/09/02 04:01:56;;;;;;;;;;;;;;;-140.72;100.00;52792.66;6246359;23;19957;-68
2023/09/02 04:04:21;;;;;;;;;;;;;;;-140.72;100.00;52772.34;6245342;23;19911;-68
2023/09/02 04:06:46;;;;;;;;;;;;;;;-140.72;100.00;52768.28;6244717;23;19919;-68
2023/09/02 04:09:12;;;;;;;;;;;;;;;-140.72;100.00;52790.63;6243040;23;20438;-68
2023/09/02 04:11:37;;;;;;;;;;;;;;;-140.72;100.00;52774.38;6244442;23;20256;-68
2023/09/02 04:14:02;;;;;;;;;;;;;;;-140.72;100.00;52760.19;6244172;22;19911;-68
2023/09/02 04:16:28;;;;;;;;;;;;;;;-140.72;100.00;52756.13;6246990;22;19919;-68
2023/09/02 04:18:53;;;;;;;;;;;;;;;-140.72;100.00;52754.09;6246219;23;19912;-68
2023/09/02 04:24:18;;;;;;;;;;;;;;;-140.72;100.00;52766.25;6246729;23;19919;-68
2023/09/02 04:26:43;;;;;;;;;;;;;;;-140.72;100.00;52727.72;6246185;23;20014;-68
2023/09/02 04:29:09;;;;;;;;;;;;;;;-140.72;100.00;52782.50;6245871;23;20348;-68
2023/09/02 04:31:48;;;;;;;;;;;;;;;-140.72;100.00;52739.88;6243608;23;19915;-68
2023/09/02 04:34:29;;;;;;;;;;;;;;;-140.72;100.00;52764.25;6244959;22;19942;-68
2023/09/02 04:36:54;;;;;;;;;;;;;;;-140.72;100.00;52764.25;6244855;23;19919;-68
2023/09/02 04:39:20;;;;;;;;;;;;;;;-140.72;100.00;52739.88;6245141;23;20240;-70
2023/09/02 04:41:45;;;;;;;;;;;;;;;-140.72;100.00;52752.06;6246153;23;19973;-68
2023/09/02 04:44:10;;;;;;;;;;;;;;;-140.72;100.00;52794.69;6245944;23;20244;-68
2023/09/02 04:46:36;;;;;;;;;;;;;;;-140.72;100.00;52752.06;6244005;22;19973;-68
2023/09/02 04:49:02;;;;;;;;;;;;;;;-140.72;100.00;52800.75;6246031;23;19998;-69
2023/09/02 04:51:27;;;;;;;;;;;;;;;-140.72;100.00;52745.97;6243882;23;19983;-68
2023/09/02 04:53:53;;;;;;;;;;;;;;;-140.72;100.00;52780.47;6246377;23;19935;-68
2023/09/02 04:56:18;;;;;;;;;;;;;;;-140.72;100.00;52760.19;6245446;23;19922;-68
2023/09/02 04:58:43;;;;;;;;;;;;;;;-140.72;100.00;52772.34;6244715;23;19915;-68
2023/09/02 05:01:12;;;;;;;;;;;;;;;-140.72;100.00;52772.34;6245542;23;19916;-69
2023/09/02 05:03:56;;;;;;;;;;;;;;;-140.72;100.00;52768.28;6244983;22;19968;-69
2023/09/02 05:06:21;;;;;;;;;;;;;;;-140.72;100.00;52731.75;6245643;23;19986;-69
2023/09/02 05:08:46;;;;;;;;;;;;;;;-140.72;100.00;52776.41;6244368;23;19919;-70
2023/09/02 05:11:12;;;;;;;;;;;;;;;-140.72;100.00;52788.59;6244174;23;19911;-69
2023/09/02 05:13:37;;;;;;;;;;;;;;;-140.72;100.00;52766.25;6246191;23;19916;-69
2023/09/02 05:16:02;;;;;;;;;;;;;;;-140.72;100.00;52796.72;6244376;23;19911;-69
2023/09/02 05:18:27;;;;;;;;;;;;;;;-140.72;100.00;52770.31;6246019;22;19916;-69
2023/09/02 05:20:58;;;;;;;;;;;;;;;-140.72;100.00;52784.53;6245536;23;19990;-70
2023/09/02 05:23:24;;;;;;;;;;;;;;;-140.72;100.00;52800.75;6245986;23;19966;-70
2023/09/02 05:25:52;;;;;;;;;;;;;;;-140.72;100.00;52817.00;6246205;23;20379;-69
2023/09/02 05:28:18;;;;;;;;;;;;;;;-140.72;100.00;52758.16;6246093;22;20251;-69
2023/09/02 05:30:44;;;;;;;;;;;;;;;-140.72;100.00;52776.41;6245732;23;19935;-69
2023/09/02 05:33:09;;;;;;;;;;;;;;;-140.72;100.00;52788.59;6244840;23;20327;-70
2023/09/02 05:35:34;;;;;;;;;;;;;;;-140.72;100.00;52762.22;6246458;23;19911;-70
2023/09/02 05:37:59;;;;;;;;;;;;;;;-140.72;100.00;52792.66;6244421;23;19965;-73
2023/09/02 05:40:25;;;;;;;;;;;;;;;-140.72;100.00;52750.03;6245440;23;19947;-68
2023/09/02 05:42:50;;;;;;;;;;;;;;;-140.72;100.00;52798.72;6246428;23;19915;-68
2023/09/02 05:45:15;;;;;;;;;;;;;;;-140.72;100.00;52737.84;6246045;23;19969;-69
2023/09/02 05:47:40;;;;;;;;;;;;;;;-140.72;100.00;52756.13;6246056;22;19915;-68
2023/09/02 05:50:06;;;;;;;;;;;;;;;-140.72;100.00;52788.59;6246362;23;19919;-68
2023/09/02 05:52:31;;;;;;;;;;;;;;;-140.72;100.00;52788.59;6245527;22;19977;-68
2023/09/02 05:54:56;;;;;;;;;;;;;;;-140.72;100.00;52727.72;6244478;23;19969;-68
2023/09/02 05:57:22;;;;;;;;;;;;;;;-140.72;100.00;52754.09;6242833;23;20350;-68
2023/09/02 05:59:47;;;;;;;;;;;;;;;-140.72;100.00;52766.25;6245124;23;19922;-68
2023/09/02 06:02:12;;;;;;;;;;;;;;;-140.72;100.00;52733.78;6244037;23;20239;-68
2023/09/02 06:04:38;;;;;;;;;;;;;;;-140.72;100.00;52723.66;6245384;23;19922;-68
2023/09/02 06:07:03;;;;;;;;;;;;;;;-140.72;100.00;52766.25;6245032;23;19923;-69
2023/09/02 06:09:29;;;;;;;;;;;;;;;-140.72;100.00;52745.97;6242356;23;19915;-69
2023/09/02 06:11:54;;;;;;;;;;;;;;;-140.72;100.00;52798.72;6245319;23;19915;-69
2023/09/02 06:14:20;;;;;;;;;;;;;;;-140.72;100.00;52778.44;6244961;23;20376;-69
2023/09/02 06:16:45;;;;;;;;;;;;;;;-140.72;100.00;52792.66;6244016;23;19919;-69
2023/09/02 06:19:10;;;;;;;;;;;;;;;-140.72;100.00;52748.00;6247105;23;20244;-69
2023/09/02 06:21:36;;;;;;;;;;;;;;;-140.72;100.00;52764.25;6244328;23;19962;-69
2023/09/02 06:24:01;;;;;;;;;;;;;;;-140.72;100.00;52713.50;6244553;23;19912;-69
2023/09/02 06:26:26;;;;;;;;;;;;;;;-140.72;100.00;52774.38;6246740;23;19922;-69
2023/09/02 06:28:51;;;;;;;;;;;;;;;-140.72;100.00;52762.22;6246893;23;20347;-69
2023/09/02 06:31:17;;;;;;;;;;;;;;;-140.72;100.00;52772.34;6247344;23;20282;-68
2023/09/02 06:33:42;;;;;;;;;;;;;;;-140.72;100.00;52735.81;6247575;23;20005;-69
2023/09/02 06:36:11;;;;;;;;;;;;;;;-140.72;100.00;52774.38;6246724;23;19922;-69
2023/09/02 06:38:36;;;;;;;;;;;;;;;-140.72;100.00;52772.34;6245778;22;19916;-69
2023/09/02 06:41:07;;;;;;;;;;;;;;;-140.72;100.00;52776.41;6245669;23;19998;-69
2023/09/02 06:43:37;;;;;;;;;;;;;;;-140.72;100.00;52707.41;6246233;22;19987;-69
2023/09/02 06:46:10;;;;;;;;;;;;;;;-140.72;100.00;52739.88;6247522;22;19922;-68
2023/09/02 06:48:48;;;;;;;;;;;;;;;-140.72;100.00;52756.13;6247589;22;19911;-68
2023/09/02 06:51:14;;;;;;;;;;;;;;;-140.72;100.00;52723.66;6246113;23;19945;-69
2023/09/02 06:53:40;;;;;;;;;;;;;;;-140.72;100.00;52770.31;6246535;22;19970;-69
2023/09/02 06:56:09;;;;;;;;;;;;;;;-140.72;100.00;52748.00;6246382;22;19911;-69
2023/09/02 06:58:38;;;;;;;;;;;;;;;-140.72;100.00;52727.72;6246711;22;19977;-70
2023/09/02 07:01:03;;;;;;;;;;;;;;;-140.72;100.00;52729.75;6246817;22;19912;-68
2023/09/02 07:03:28;;;;;;;;;;;;;;;-140.72;100.00;52735.81;6247345;23;19920;-68
2023/09/02 07:05:54;;;;;;;;;;;;;;;-140.72;100.00;52745.97;6247176;23;19915;-68
2023/09/02 07:08:19;;;;;;;;;;;;;;;-140.72;100.00;52703.34;6244925;22;19957;-69
2023/09/02 07:10:44;;;;;;;;;;;;;;;-140.72;100.00;52752.06;6245703;23;19912;-69
2023/09/02 07:13:10;;;;;;;;;;;;;;;-140.72;100.00;52707.41;6245956;23;20339;-69
2023/09/02 07:15:35;;;;;;;;;;;;;;;-140.72;100.00;52699.31;6246642;23;19912;-69
2023/09/02 07:18:01;;;;;;;;;;;;;;;-140.72;100.00;52770.31;6246843;23;19912;-68
2023/09/02 07:20:26;;;;;;;;;;;;;;;-140.72;100.00;52711.47;6247007;22;20288;-69
2023/09/02 07:22:51;;;;;;;;;;;;;;;-140.72;100.00;52709.44;6247085;23;19911;-69
2023/09/02 07:25:16;;;;;;;;;;;;;;;-140.72;100.00;52731.75;6244792;23;20248;-69
2023/09/02 07:27:42;;;;;;;;;;;;;;;-140.72;100.00;52729.75;6245299;23;19934;-69
2023/09/02 07:30:07;;;;;;;;;;;;;;;-140.72;100.00;52731.75;6244424;23;19923;-69
2023/09/02 07:32:32;;;;;;;;;;;;;;;-140.72;100.00;52764.25;6247207;22;20331;-69
2023/09/02 07:34:58;;;;;;;;;;;;;;;-140.72;100.00;52679.00;6247489;23;19915;-69
2023/09/02 07:37:23;;;;;;;;;;;;;;;-140.72;100.00;52679.00;6248501;23;19912;-70
2023/09/02 07:39:48;;;;;;;;;;;;;;;-140.72;100.00;52658.72;6248386;23;20240;-69
2023/09/02 07:42:13;;;;;;;;;;;;;;;-140.72;100.00;52750.03;6246548;23;19916;-70
2023/09/02 07:44:38;;;;;;;;;;;;;;;-140.72;100.00;52697.28;6246586;23;19994;-70
2023/09/02 07:47:04;;;;;;;;;;;;;;;-140.72;100.00;52683.06;6245986;22;19986;-69
2023/09/02 07:49:29;;;;;;;;;;;;;;;-140.72;100.00;52715.53;6243213;23;19923;-70
2023/09/02 07:51:54;;;;;;;;;;;;;;;-140.72;100.00;52711.47;6243909;23;19919;-70
2023/09/02 07:54:19;;;;;;;;;;;;;;;-140.72;100.00;52703.34;6245322;23;19912;-69
2023/09/02 07:56:45;;;;;;;;;;;;;;;-140.72;100.00;52660.75;6246506;23;19947;-69
2023/09/02 07:59:10;;;;;;;;;;;;;;;-140.72;100.00;52721.63;6246563;23;19919;-69
2023/09/02 08:01:35;;;;;;;;;;;;;;;-140.72;100.00;52695.25;6246278;23;19990;-70
2023/09/02 08:04:00;;;;;;;;;;;;;;;-140.72;100.00;52676.97;6244511;23;19963;-70
2023/09/02 08:06:25;;;;;;;;;;;;;;;-140.72;100.00;52666.84;6245099;23;20252;-70
2023/09/02 08:08:54;;;;;;;;;;;;;;;-140.72;100.00;52691.19;6245495;23;20237;-69
2023/09/02 08:11:19;;;;;;;;;;;;;;;-140.72;100.00;52658.72;6246185;23;19912;-69
2023/09/02 08:13:44;;;;;;;;;;;;;;;-140.72;100.00;52691.19;6246145;23;20275;-69
2023/09/02 08:16:10;;;;;;;;;;;;;;;-140.72;100.00;52709.44;6246051;23;20029;-69
2023/09/02 08:18:35;;;;;;;;;;;;;;;-140.72;100.00;52697.28;6246111;23;20336;-69
2023/09/02 08:21:01;;;;;;;;;;;;;;;-140.72;100.00;52672.91;6246556;22;20393;-70
2023/09/02 08:23:26;;;;;;;;;;;;;;;-140.72;100.00;52640.44;6245848;22;19990;-70
2023/09/02 08:25:51;;;;;;;;;;;;;;;-140.72;100.00;52711.47;6246482;23;19955;-71
2023/09/02 08:28:17;;;;;;;;;;;;;;;-140.72;100.00;52670.88;6246145;23;19991;-69
2023/09/02 08:30:43;;;;;;;;;;;;;;;-140.72;100.00;52679.00;6246782;23;19912;-71
2023/09/02 08:33:08;;;;;;;;;;;;;;;-140.72;100.00;52679.00;6245905;22;20281;-68
2023/09/02 08:35:34;;;;;;;;;;;;;;;-140.72;100.00;52668.84;6245492;23;19911;-73
2023/09/02 08:38:00;;;;;;;;;;;;;;;-140.72;100.00;52674.94;6246329;22;20394;-72
2023/09/02 08:40:25;;;;;;;;;;;;;;;-140.72;100.00;52640.44;6246842;23;19916;-70
2023/09/02 08:42:50;;;;;;;;;;;;;;;-140.72;100.00;52656.69;6246863;23;19911;-70
2023/09/02 08:45:19;;;;;;;;;;;;;;;-140.72;100.00;52646.53;6246435;23;19955;-70
2023/09/02 08:47:46;;;;;;;;;;;;;;;-140.72;100.00;52662.78;6246487;22;19924;-70
2023/09/02 08:50:12;;;;;;;;;;;;;;;-140.72;100.00;52656.69;6246239;22;19912;-70
2023/09/02 08:52:40;;;;;;;;;;;;;;;-140.72;100.00;52642.47;6247009;23;19938;-70
2023/09/02 08:55:06;;;;;;;;;;;;;;;-140.72;100.00;52620.16;6246290;22;20002;-70
2023/09/02 08:57:32;;;;;;;;;;;;;;;-140.72;100.00;52648.56;6244713;23;20283;-72
2023/09/02 08:59:58;;;;;;;;;;;;;;;-140.72;100.00;52668.84;6244648;22;19951;-71
2023/09/02 09:02:24;;;;;;;;;;;;;;;-140.72;100.00;52640.44;6245989;22;19912;-70
2023/09/02 09:04:50;;;;;;;;;;;;;;;-140.72;100.00;52666.84;6242863;22;20309;-68
2023/09/02 09:07:16;;;;;;;;;;;;;;;-140.72;100.00;52658.72;6246409;23;19912;-68
2023/09/02 09:09:42;;;;;;;;;;;;;;;-140.72;100.00;52638.41;6246058;22;19919;-68
2023/09/02 09:12:08;;;;;;;;;;;;;;;-140.72;100.00;52648.56;6244622;23;19915;-69
2023/09/02 09:14:36;;;;;;;;;;;;;;;-140.72;100.00;52648.56;6246210;22;19911;-69
2023/09/02 09:17:02;;;;;;;;;;;;;;;-140.72;100.00;52632.34;6246266;22;20529;-69
2023/09/02 09:19:28;;;;;;;;;;;;;;;-140.72;100.00;52626.25;6246713;22;19922;-69
2023/09/02 09:21:54;;;;;;;;;;;;;;;-140.72;100.00;52616.09;6246170;22;20290;-72
2023/09/02 09:24:20;;;;;;;;;;;;;;;-140.72;100.00;52620.16;6244478;23;19918;-70
2023/09/02 09:26:45;;;;;;;;;;;;;;;-140.72;100.00;52591.75;6245584;23;19994;-70
2023/09/02 09:29:12;;;;;;;;;;;;;;;-140.72;100.00;52599.88;6245574;22;19911;-70
2023/09/02 09:31:37;;;;;;;;;;;;;;;-140.72;100.00;52597.84;6246971;22;19953;-70
2023/09/02 09:34:03;;;;;;;;;;;;;;;-140.72;100.00;52636.38;6247002;23;19992;-70
2023/09/02 09:36:29;;;;;;;;;;;;;;;-140.72;100.00;52573.50;6247613;23;19918;-71
2023/09/02 09:38:56;;;;;;;;;;;;;;;-140.72;100.00;52610.00;6246905;22;19954;-71
2023/09/02 09:41:25;;;;;;;;;;;;;;;-140.72;100.00;52605.94;6244376;22;19998;-70
2023/09/02 09:44:06;;;;;;;;;;;;;;;-140.72;100.00;52565.38;6243966;22;19911;-69
2023/09/02 09:46:35;;;;;;;;;;;;;;;-140.72;100.00;52567.41;6244707;22;19919;-69
2023/09/02 09:49:01;;;;;;;;;;;;;;;-140.72;100.00;52569.44;6245154;22;19912;-69
2023/09/02 09:51:26;;;;;;;;;;;;;;;-140.72;100.00;52520.72;6246655;22;19922;-72
2023/09/02 09:53:52;;;;;;;;;;;;;;;-140.72;100.00;52536.97;6245897;23;19920;-73
2023/09/02 09:56:17;;;;;;;;;;;;;;;-140.72;100.00;52516.66;6247156;23;19916;-70
2023/09/02 09:58:42;;;;;;;;;;;;;;;-140.72;100.00;52567.41;6248380;23;19965;-72
2023/09/02 10:01:08;;;;;;;;;;;;;;;-140.72;100.00;52500.44;6248484;23;19923;-71
2023/09/02 10:03:34;;;;;;;;;;;;;;;-140.72;100.00;52484.19;6247589;22;19919;-72
2023/09/02 10:06:00;;;;;;;;;;;;;;;-140.72;100.00;52472.03;6246759;22;19911;-71
2023/09/02 10:08:48;;;;;;;;;;;;;;;-140.72;100.00;52449.72;6247409;22;19982;-77
2023/09/02 10:11:18;;;;;;;;;;;;;;;-140.72;100.00;52427.38;6247752;22;19912;-71
2023/09/02 10:13:43;;;;;;;;;;;;;;;-140.72;100.00;52480.16;6247117;22;19998;-69
2023/09/02 10:16:08;;;;;;;;;;;;;;;-140.72;100.00;52453.75;6246327;23;19947;-68
2023/09/02 10:18:34;;;;;;;;;;;;;;;-140.72;100.00;52502.47;6247388;23;19919;-68
2023/09/02 10:21:00;;;;;;;;;;;;;;;-140.72;100.00;52500.44;6247265;23;19961;-68
2023/09/02 10:23:27;;;;;;;;;;;;;;;-140.72;100.00;52480.16;6245885;23;19918;-68
2023/09/02 10:25:52;;;;;;;;;;;;;;;-140.72;100.00;52502.47;6246700;22;19915;-68
2023/09/02 10:28:21;;;;;;;;;;;;;;;-140.72;100.00;52488.25;6246609;23;19994;-68
2023/09/02 10:30:48;;;;;;;;;;;;;;;-140.72;100.00;52547.09;6244141;22;19995;-68
2023/09/02 10:33:20;;;;;;;;;;;;;;;-140.72;100.00;52528.84;6246666;22;20312;-68
2023/09/02 10:35:50;;;;;;;;;;;;;;;-140.72;100.00;52585.66;6245180;23;19951;-69
2023/09/02 10:38:19;;;;;;;;;;;;;;;-140.72;100.00;52557.25;6243777;23;19923;-69
2023/09/02 10:40:48;;;;;;;;;;;;;;;-140.72;100.00;52532.91;6245896;22;19931;-68
2023/09/02 10:43:14;;;;;;;;;;;;;;;-140.72;100.00;52498.41;6245166;23;19912;-68
2023/09/02 10:45:39;;;;;;;;;;;;;;;-140.72;100.00;52512.59;6247044;22;19998;-67
2023/09/02 10:48:05;;;;;;;;;;;;;;;-140.72;100.00;52482.16;6246953;22;19911;-68
2023/09/02 10:50:30;;;;;;;;;;;;;;;-140.72;100.00;52512.59;6244905;22;19991;-68
2023/09/02 10:52:55;;;;;;;;;;;;;;;-140.72;100.00;52474.06;6245352;22;19939;-69
2023/09/02 10:55:21;;;;;;;;;;;;;;;-140.72;100.00;52492.31;6246555;23;19922;-69
2023/09/02 10:57:46;;;;;;;;;;;;;;;-140.72;100.00;52439.56;6246730;22;19915;-68
2023/09/02 11:00:19;;;;;;;;;;;;;;;-140.72;100.00;52403.03;6246630;23;19918;-69
2023/09/02 11:02:45;;;;;;;;;;;;;;;-140.72;100.00;52370.56;6245528;22;19915;-68
2023/09/02 11:05:11;;;;;;;;;;;;;;;-140.72;100.00;52307.66;6243127;23;19938;-68
2023/09/02 11:07:39;;;;;;;;;;;;;;;-140.72;100.00;52244.78;6243048;23;19911;-67
2023/09/02 11:10:04;;;;;;;;;;;;;;;-140.72;100.00;52289.41;6244641;22;20299;-67
2023/09/02 11:12:29;;;;;;;;;;;;;;;-140.72;100.00;52248.81;6246732;22;19954;-68
2023/09/02 11:15:12;;;;;;;;;;;;;;;-140.72;100.00;52222.44;6244649;23;19922;-68
2023/09/02 11:17:41;;;;;;;;;;;;;;;-140.72;65.86;52212.31;6247029;22;20226;-68
2023/09/02 11:20:10;;;;;;;;;;;;;;;-140.72;0.00;52273.19;6246314;22;19977;-67
2023/09/02 11:22:48;;;;;;;;;;;;;;;-140.72;0.00;52273.19;6246186;22;20677;-68
2023/09/02 11:25:25;;;;;;;;;;;;;;;-140.72;0.00;52321.88;6246485;22;19939;-68
2023/09/02 11:27:50;;;;;;;;;;;;;;;-140.72;0.00;52265.06;6246538;23;19918;-68
2023/09/02 11:30:16;;;;;;;;;;;;;;;-140.72;0.00;52317.81;6247147;22;19915;-67
2023/09/02 11:32:45;;;;;;;;;;;;;;;-140.72;0.00;52325.94;6246762;22;19911;-68
2023/09/02 11:35:11;;;;;;;;;;;;;;;-140.72;0.00;52336.06;6244865;22;19912;-67
2023/09/02 11:37:36;;;;;;;;;;;;;;;-140.72;0.00;52392.88;6243930;23;19919;-68
2023/09/02 11:40:12;;;;;;;;;;;;;;;-140.72;14.01;52415.22;6245727;22;19912;-67
2023/09/02 11:42:46;;;;;;;;;;;;;;;-140.72;100.00;52407.09;6246433;22;19919;-68
2023/09/02 11:45:13;;;;;;;;;;;;;;;-140.72;100.00;52407.09;6246248;22;20356;-68
2023/09/02 11:47:38;;;;;;;;;;;;;;;-140.72;100.00;52461.88;6246337;22;19912;-68
2023/09/02 11:50:04;;;;;;;;;;;;;;;-140.72;100.00;52455.78;6244937;23;19922;-68
2023/09/02 11:52:29;;;;;;;;;;;;;;;-140.72;100.00;52427.38;6246188;22;19911;-68
2023/09/02 11:54:55;;;;;;;;;;;;;;;-140.72;100.00;52407.09;6246298;23;19912;-68
2023/09/02 11:57:20;;;;;;;;;;;;;;;-140.72;100.00;52386.81;6245939;23;20386;-68
2023/09/02 11:59:45;;;;;;;;;;;;;;;-140.72;100.00;52327.97;6245630;23;19987;-68
2023/09/02 12:02:15;;;;;;;;;;;;;;;-140.72;100.00;52238.69;6245692;23;20249;-68
2023/09/02 12:04:41;;;;;;;;;;;;;;;-140.72;0.00;52216.34;6247121;23;20317;-68
2023/09/02 12:07:07;;;;;;;;;;;;;;;-140.72;0.00;52141.28;6245886;22;19939;-68
2023/09/02 12:09:34;;;;;;;;;;;;;;;-140.72;0.00;52151.44;6246616;22;20323;-69
2023/09/02 12:12:00;;;;;;;;;;;;;;;-140.72;0.00;52187.97;6246004;22;19919;-68
2023/09/02 12:14:27;;;;;;;;;;;;;;;-140.72;0.00;52208.25;6245807;22;19946;-68
2023/09/02 12:16:52;;;;;;;;;;;;;;;-140.72;0.00;52224.47;6243709;22;19919;-68
2023/09/02 12:19:18;;;;;;;;;;;;;;;-140.72;0.00;52252.88;6244769;23;19920;-69
2023/09/02 12:22:07;;;;;;;;;;;;;;;-140.72;0.00;52236.66;6243450;23;19916;-68